createdAt,value
2023-01-19T00:03:30.452Z,98670.50
2023-01-19T00:08:34.684Z,98689.07
2023-01-19T00:13:37.492Z,98700.25
2023-01-19T00:18:40.117Z,98708.54
2023-01-19T00:23:47.145Z,98726.11
2023-01-19T00:28:50.344Z,98745.40
2023-01-19T00:33:53.190Z,98753.31
2023-01-19T00:38:55.869Z,98764.08
2023-01-19T00:43:58.460Z,98776.15
2023-01-19T00:49:01.162Z,98789.17
2023-01-19T00:54:04.845Z,98799.55
2023-01-19T00:59:07.513Z,98798.70
2023-01-19T01:04:12.090Z,98807.17
2023-01-19T01:09:14.951Z,98814.58
2023-01-19T01:14:18.270Z,98809.94
2023-01-19T01:19:21.333Z,98816.06
2023-01-19T01:24:23.905Z,98832.00
2023-01-19T01:29:26.575Z,98838.92
2023-01-19T01:34:29.158Z,98853.01
2023-01-19T01:39:31.715Z,98861.97
2023-01-19T01:44:57.493Z,98868.58
2023-01-19T01:50:13.069Z,98877.23
2023-01-19T01:55:18.591Z,98886.64
2023-01-19T02:00:21.618Z,98891.71
2023-01-19T02:05:28.231Z,98906.09
2023-01-19T02:10:50.272Z,98917.30
2023-01-19T02:15:59.416Z,98917.45
2023-01-19T02:21:26.370Z,98916.26
2023-01-19T02:26:38.317Z,98922.45
2023-01-19T02:31:41.428Z,98934.17
2023-01-19T02:37:07.576Z,98941.30
2023-01-19T02:42:18.836Z,98940.56
2023-01-19T02:47:21.809Z,98932.38
2023-01-19T02:52:26.205Z,98922.01
2023-01-19T02:57:50.194Z,98925.73
2023-01-19T03:02:59.263Z,98928.37
2023-01-19T03:08:39.643Z,98923.55
2023-01-19T03:13:57.895Z,98926.78
2023-01-19T03:19:13.166Z,98926.92
2023-01-19T03:24:19.313Z,98920.77
2023-01-19T03:29:24.557Z,98913.45
2023-01-19T03:34:28.915Z,98917.30
2023-01-19T03:39:32.001Z,98918.54
2023-01-19T03:44:38.411Z,98914.02
2023-01-19T03:49:44.311Z,98913.71
2023-01-19T03:54:46.899Z,98911.61
2023-01-19T03:59:49.624Z,98898.73
2023-01-19T04:04:52.225Z,98898.65
2023-01-19T04:09:54.772Z,98902.18
2023-01-19T04:14:57.322Z,98907.14
2023-01-19T04:20:00.447Z,98918.21
2023-01-19T04:25:03.298Z,98925.87
2023-01-19T04:30:06.919Z,98932.38
2023-01-19T04:35:09.700Z,98941.87
2023-01-19T04:40:12.697Z,98955.21
2023-01-19T04:45:15.423Z,98957.01
2023-01-19T04:50:18.596Z,98958.06
2023-01-19T04:55:21.443Z,98966.84
2023-01-19T05:00:24.137Z,98977.79
2023-01-19T05:05:27.375Z,98981.04
2023-01-19T05:10:30.003Z,98977.61
2023-01-19T05:15:32.603Z,98974.66
2023-01-19T05:20:35.207Z,98980.33
2023-01-19T05:25:37.814Z,98981.73
2023-01-19T05:30:40.412Z,98986.69
2023-01-19T05:35:43.132Z,98991.23
2023-01-19T05:40:45.726Z,98998.80
2023-01-19T05:45:48.264Z,99014.33
2023-01-19T05:50:51.053Z,99025.14
2023-01-19T05:55:59.179Z,99036.47
2023-01-19T06:01:05.398Z,99041.09
2023-01-19T06:06:08.172Z,99051.22
2023-01-19T06:11:11.661Z,99070.61
2023-01-19T06:16:14.552Z,99079.34
2023-01-19T06:21:17.426Z,99080.52
2023-01-19T06:26:20.068Z,99092.81
2023-01-19T06:31:22.851Z,99102.87
2023-01-19T06:36:25.660Z,99111.89
2023-01-19T06:41:28.290Z,99120.28
2023-01-19T06:46:31.358Z,99122.09
2023-01-19T06:51:34.196Z,99118.85
2023-01-19T06:56:37.040Z,99121.64
2023-01-19T07:01:40.641Z,99126.46
2023-01-19T07:06:43.473Z,99136.83
2023-01-19T07:11:47.021Z,99150.30
2023-01-19T07:16:49.706Z,99162.58
2023-01-19T07:21:52.407Z,99170.44
2023-01-19T07:26:54.978Z,99190.54
2023-01-19T07:31:57.822Z,99212.15
2023-01-19T07:37:00.710Z,99216.78
2023-01-19T07:42:03.498Z,99214.65
2023-01-19T07:47:07.696Z,99215.92
2023-01-19T07:52:10.790Z,99219.78
2023-01-19T07:57:13.780Z,99215.89
2023-01-19T08:02:17.444Z,99212.61
2023-01-19T08:07:20.375Z,99219.19
2023-01-19T08:12:22.963Z,99217.12
2023-01-19T08:17:25.604Z,99216.23
2023-01-19T08:22:28.514Z,99215.17
2023-01-19T08:27:31.226Z,99214.27
2023-01-19T08:32:33.961Z,99217.10
2023-01-19T08:37:36.733Z,99215.19
2023-01-19T08:42:39.763Z,99219.50
2023-01-19T08:47:42.866Z,99230.30
2023-01-19T08:52:45.702Z,99240.30
2023-01-19T08:57:52.611Z,99243.04
2023-01-19T09:02:56.541Z,99251.44
2023-01-19T09:07:59.322Z,99253.88
2023-01-19T09:13:06.954Z,99258.44
2023-01-19T09:18:21.515Z,99263.79
2023-01-19T09:23:25.481Z,99262.77
2023-01-19T09:28:29.332Z,99258.22
2023-01-19T09:33:32.105Z,99258.46
2023-01-19T09:38:34.669Z,99266.30
2023-01-19T09:43:47.991Z,99268.29
2023-01-19T09:48:50.599Z,99263.18
2023-01-19T09:54:04.996Z,99264.33
2023-01-19T09:59:29.157Z,99262.05
2023-01-19T10:04:43.567Z,99260.50
2023-01-19T10:10:05.759Z,99263.40
2023-01-19T10:15:53.525Z,99260.04
2023-01-19T10:21:06.438Z,99268.94
2023-01-19T10:26:36.286Z,99269.17
2023-01-19T10:31:42.588Z,99274.61
2023-01-19T10:36:48.118Z,99271.39
2023-01-19T10:41:53.438Z,99271.73
2023-01-19T10:46:58.959Z,99276.55
2023-01-19T10:52:03.304Z,99277.34
2023-01-19T10:57:10.157Z,99270.64
2023-01-19T11:02:20.628Z,99262.65
2023-01-19T11:07:26.950Z,99248.53
2023-01-19T11:12:30.669Z,99243.35
2023-01-19T11:17:33.662Z,99249.46
2023-01-19T11:22:36.884Z,99244.64
2023-01-19T11:27:50.342Z,99247.45
2023-01-19T11:32:54.355Z,99247.41
2023-01-19T11:38:27.239Z,99252.77
2023-01-19T11:43:43.536Z,99252.14
2023-01-19T11:49:02.094Z,99246.53
2023-01-19T11:54:19.966Z,99243.50
2023-01-19T11:59:25.014Z,99242.88
2023-01-19T12:04:39.301Z,99242.52
2023-01-19T12:09:47.389Z,99239.02
2023-01-19T12:15:11.920Z,99241.14
2023-01-19T12:20:52.131Z,99239.24
2023-01-19T12:26:03.547Z,99238.22
2023-01-19T12:31:06.332Z,99236.58
2023-01-19T12:36:27.642Z,99237.44
2023-01-19T12:41:31.771Z,99236.38
2023-01-19T12:46:34.939Z,99236.55
2023-01-19T12:51:38.159Z,99223.92
2023-01-19T12:56:42.893Z,99230.86
2023-01-19T13:02:24.074Z,99238.31
2023-01-19T13:07:26.566Z,99230.15
2023-01-19T13:12:29.357Z,99226.89
2023-01-19T13:17:54.056Z,99225.69
2023-01-19T13:23:24.622Z,99229.05
2023-01-19T13:28:41.518Z,99232.65
2023-01-19T13:34:04.123Z,99228.89
2023-01-19T13:39:16.579Z,99230.27
2023-01-19T13:44:23.715Z,99229.84
2023-01-19T13:49:32.742Z,99229.80
2023-01-19T13:54:35.632Z,99234.95
2023-01-19T13:59:38.177Z,99238.07
2023-01-19T14:04:40.745Z,99240.71
2023-01-19T14:09:43.451Z,99251.41
2023-01-19T14:14:48.137Z,99259.34
2023-01-19T14:19:53.316Z,99264.70
2023-01-19T14:24:56.009Z,99261.16
2023-01-19T14:30:20.451Z,99263.25
2023-01-19T14:35:25.042Z,99269.30
2023-01-19T14:40:27.896Z,99270.21
2023-01-19T14:45:36.116Z,99275.06
2023-01-19T14:50:42.846Z,99281.05
2023-01-19T14:55:55.910Z,99276.86
2023-01-19T15:00:58.658Z,99283.63
2023-01-19T15:06:04.186Z,99289.27
2023-01-19T15:11:11.828Z,99290.23
2023-01-19T15:16:14.770Z,99289.98
2023-01-19T15:21:20.000Z,99290.38
2023-01-19T15:26:24.911Z,99289.38
2023-01-19T15:31:27.672Z,99289.84
2023-01-19T15:36:30.495Z,99292.44
2023-01-19T15:41:33.623Z,99291.05
2023-01-19T15:46:36.901Z,99294.61
2023-01-19T15:51:39.556Z,99303.79
2023-01-19T15:56:42.708Z,99307.67
2023-01-19T16:01:45.574Z,99318.83
2023-01-19T16:06:50.096Z,99318.91
2023-01-19T16:11:56.898Z,99324.02
2023-01-19T16:17:00.894Z,99327.05
2023-01-19T16:22:05.612Z,99328.28
2023-01-19T16:27:08.850Z,99329.31
2023-01-19T16:32:12.465Z,99331.45
2023-01-19T16:37:15.126Z,99330.20
2023-01-19T16:42:21.127Z,99333.83
2023-01-19T16:47:23.974Z,99336.33
2023-01-19T16:52:26.618Z,99336.35
2023-01-19T16:57:29.505Z,99337.48
2023-01-19T17:02:32.126Z,99338.31
2023-01-19T17:07:35.048Z,99335.91
2023-01-19T17:19:21.874Z,99335.47
2023-01-19T17:24:25.018Z,99339.94
2023-01-19T17:29:28.236Z,99339.52
2023-01-19T17:34:31.011Z,99335.44
2023-01-19T17:39:33.759Z,99341.89
2023-01-19T17:44:36.349Z,99338.46
2023-01-19T17:49:39.361Z,99338.34
2023-01-19T17:54:41.945Z,99340.63
2023-01-19T17:59:44.582Z,99337.15
2023-01-19T18:04:47.175Z,99338.13
2023-01-19T18:09:51.715Z,99330.74
2023-01-19T18:14:54.275Z,99328.48
2023-01-19T18:19:57.298Z,99321.13
2023-01-19T18:25:01.543Z,99320.39
2023-01-19T18:30:04.953Z,99323.98
2023-01-19T18:35:08.363Z,99322.27
2023-01-19T18:40:12.758Z,99320.96
2023-01-19T18:45:16.119Z,99320.48
2023-01-19T18:50:19.072Z,99322.67
2023-01-19T18:55:21.730Z,99327.48
2023-01-19T19:00:24.392Z,99329.20
2023-01-19T19:05:27.071Z,99327.38
2023-01-19T19:10:30.113Z,99323.21
2023-01-19T19:15:34.330Z,99327.80
2023-01-19T19:20:40.175Z,99335.63
2023-01-19T19:25:42.813Z,99337.05
2023-01-19T19:30:46.465Z,99338.93
2023-01-19T19:35:56.352Z,99336.98
2023-01-19T19:41:04.123Z,99334.20
2023-01-19T19:46:09.516Z,99332.20
2023-01-19T19:51:19.387Z,99339.01
2023-01-19T19:56:24.231Z,99348.03
2023-01-19T20:01:32.501Z,99352.60
2023-01-19T20:06:38.914Z,99352.35
2023-01-19T20:11:43.965Z,99350.10
2023-01-19T20:16:46.659Z,99350.73
2023-01-19T20:21:50.017Z,99346.62
2023-01-19T20:26:53.183Z,99348.55
2023-01-19T20:31:59.996Z,99350.41
2023-01-19T20:37:04.696Z,99350.58
2023-01-19T20:42:13.683Z,99349.67
2023-01-19T20:47:21.684Z,99351.20
2023-01-19T20:52:26.414Z,99351.86
2023-01-19T20:57:31.148Z,99354.77
2023-01-19T21:02:33.818Z,99355.59
2023-01-19T21:07:36.908Z,99362.83
2023-01-19T21:12:39.668Z,99372.30
2023-01-19T21:17:45.199Z,99377.00
2023-01-19T21:22:48.243Z,99374.38
2023-01-19T21:27:51.330Z,99376.31
2023-01-19T21:32:55.139Z,99386.36
2023-01-19T21:37:58.310Z,99390.25
2023-01-19T21:43:01.088Z,99396.62
2023-01-19T21:48:03.714Z,99403.77
2023-01-19T21:53:11.290Z,99412.13
2023-01-19T21:58:13.981Z,99414.39
2023-01-19T22:03:16.829Z,99419.18
2023-01-19T22:08:19.440Z,99416.23
2023-01-19T22:13:22.032Z,99409.94
2023-01-19T22:18:24.686Z,99415.25
2023-01-19T22:23:27.386Z,99426.20
2023-01-19T22:28:29.937Z,99430.61
2023-01-19T22:33:36.013Z,99428.05
2023-01-19T22:38:40.116Z,99428.20
2023-01-19T22:43:43.582Z,99427.22
2023-01-19T22:48:48.799Z,99428.59
2023-01-19T22:53:51.877Z,99425.80
2023-01-19T22:58:55.394Z,99428.20
2023-01-19T23:03:58.032Z,99439.30
2023-01-19T23:09:04.521Z,99450.79
2023-01-19T23:14:11.557Z,99453.94
2023-01-19T23:19:16.853Z,99466.56
2023-01-19T23:24:20.829Z,99471.41
2023-01-19T23:29:23.750Z,99472.56
2023-01-19T23:34:26.751Z,99474.45
2023-01-19T23:39:29.534Z,99475.41
2023-01-19T23:44:32.102Z,99484.62
2023-01-19T23:49:34.661Z,99492.11
2023-01-19T23:54:37.317Z,99494.59
2023-01-19T23:59:40.047Z,99498.53
